Time;durP1;ratioP1;P1;durP2;ratioP2;P2;SDS_P1;SDS_P2;PMS_P1;PMS_P2;Temp;Humidity;BMP_temperature;BMP_pressure;BME280_temperature;BME280_humidity;BME280_pressure;Samples;Min_cycle;Max_cycle;Signal;HPM_P1;HPM_P2
2022/08/05 00:02:37;;;;;;;4.78;3.70;;;;;;;;;;5008811;28;20565;-48
2022/08/05 00:05:23;;;;;;;5.75;3.45;;;;;;;;;;5007287;28;20571;-48
2022/08/05 00:08:09;;;;;;;6.13;3.80;;;;;;;;;;5008862;28;20038;-50
2022/08/05 00:10:58;;;;;;;6.78;3.70;;;;;;;;;;5008654;28;20038;-49
2022/08/05 00:13:44;;;;;;;5.53;3.67;;;;;;;;;;5007066;28;21971;-49
2022/08/05 00:16:30;;;;;;;4.85;4.03;;;;;;;;;;5008292;28;20034;-51
2022/08/05 00:19:16;;;;;;;9.15;3.85;;;;;;;;;;5008767;28;20112;-48
2022/08/05 00:22:03;;;;;;;7.22;3.55;;;;;;;;;;5007530;28;20041;-47
2022/08/05 00:24:48;;;;;;;5.25;4.07;;;;;;;;;;5010411;28;20092;-50
2022/08/05 00:27:34;;;;;;;6.15;3.80;;;;;;;;;;5006648;28;20045;-49
2022/08/05 00:30:20;;;;;;;5.85;4.03;;;;;;;;;;5008835;28;20034;-49
2022/08/05 00:33:06;;;;;;;4.25;3.85;;;;;;;;;;5008805;28;20189;-48
2022/08/05 00:35:52;;;;;;;3.63;3.42;;;;;;;;;;5009066;28;20061;-50
2022/08/05 00:38:38;;;;;;;4.53;3.65;;;;;;;;;;5006311;28;20478;-53
2022/08/05 00:41:29;;;;;;;7.75;3.90;;;;;;;;;;5002526;28;20665;-48
2022/08/05 00:44:15;;;;;;;6.88;3.97;;;;;;;;;;5009166;28;20030;-48
2022/08/05 00:47:00;;;;;;;6.50;3.95;;;;;;;;;;5007589;28;20030;-50
2022/08/05 00:49:46;;;;;;;9.50;4.57;;;;;;;;;;5005874;28;20034;-48
2022/08/05 00:52:32;;;;;;;7.65;3.78;;;;;;;;;;5003966;28;20121;-49
2022/08/05 00:55:18;;;;;;;4.28;3.65;;;;;;;;;;5006734;28;20783;-49
2022/08/05 00:58:03;;;;;;;6.32;3.78;;;;;;;;;;5006076;28;20053;-48
2022/08/05 01:00:49;;;;;;;5.25;3.97;;;;;;;;;;5010109;28;20100;-48
2022/08/05 01:03:36;;;;;;;6.38;4.10;;;;;;;;;;5005553;28;20042;-49
2022/08/05 01:06:22;;;;;;;7.03;4.03;;;;;;;;;;5011314;28;20025;-48
2022/08/05 01:09:08;;;;;;;8.43;3.97;;;;;;;;;;5004813;28;22426;-51
2022/08/05 01:11:58;;;;;;;6.95;4.18;;;;;;;;;;5008353;28;20428;-50
2022/08/05 01:14:50;;;;;;;6.38;4.00;;;;;;;;;;5004051;28;20376;-48
2022/08/05 01:17:45;;;;;;;3.97;3.67;;;;;;;;;;5007603;28;20033;-47
2022/08/05 01:20:52;;;;;;;4.97;3.85;;;;;;;;;;5007803;28;20034;-50
2022/08/05 01:24:08;;;;;;;6.25;3.58;;;;;;;;;;5005067;28;20041;-49
2022/08/05 01:27:06;;;;;;;8.93;4.07;;;;;;;;;;5008354;28;20033;-50
2022/08/05 01:29:56;;;;;;;6.35;4.20;;;;;;;;;;5005849;28;20029;-49
2022/08/05 01:32:44;;;;;;;9.40;4.50;;;;;;;;;;5005161;28;20108;-51
2022/08/05 01:35:32;;;;;;;6.57;3.88;;;;;;;;;;5005747;28;20073;-48
2022/08/05 01:38:21;;;;;;;6.95;3.90;;;;;;;;;;5005417;28;20125;-49
2022/08/05 01:41:07;;;;;;;4.43;3.97;;;;;;;;;;5004379;28;20379;-51
2022/08/05 01:43:55;;;;;;;5.97;4.00;;;;;;;;;;5007017;28;20489;-48
2022/08/05 01:46:42;;;;;;;5.95;3.85;;;;;;;;;;5007401;28;20456;-51
2022/08/05 01:49:29;;;;;;;8.02;3.65;;;;;;;;;;5003627;28;20155;-50
2022/08/05 01:52:18;;;;;;;4.22;3.83;;;;;;;;;;5005434;28;20037;-50
2022/08/05 01:55:09;;;;;;;6.05;3.88;;;;;;;;;;5004279;28;20034;-52
2022/08/05 01:57:56;;;;;;;12.95;4.03;;;;;;;;;;5003922;28;20572;-50
2022/08/05 02:00:46;;;;;;;6.53;3.60;;;;;;;;;;5011005;28;20569;-47
2022/08/05 02:03:38;;;;;;;4.60;3.70;;;;;;;;;;5006559;28;20029;-49
2022/08/05 02:06:25;;;;;;;7.15;3.78;;;;;;;;;;5004660;28;20034;-50
2022/08/05 02:09:11;;;;;;;4.72;3.63;;;;;;;;;;5008476;28;20159;-48
2022/08/05 02:11:56;;;;;;;13.57;4.80;;;;;;;;;;5009456;28;20029;-49
2022/08/05 02:14:52;;;;;;;7.15;3.70;;;;;;;;;;5006565;28;20061;-52
2022/08/05 02:17:46;;;;;;;6.40;4.00;;;;;;;;;;5008182;28;20118;-47
2022/08/05 02:21:01;;;;;;;6.93;3.97;;;;;;;;;;5004406;28;20483;-50
2022/08/05 02:23:54;;;;;;;5.88;4.00;;;;;;;;;;5007776;28;20034;-48
2022/08/05 02:26:48;;;;;;;6.75;3.72;;;;;;;;;;5006284;28;20064;-49
2022/08/05 02:29:35;;;;;;;4.95;3.70;;;;;;;;;;5007444;28;20418;-48
2022/08/05 02:32:22;;;;;;;5.28;4.07;;;;;;;;;;5006531;28;20184;-48
2022/08/05 02:35:18;;;;;;;9.32;3.60;;;;;;;;;;5006418;28;20394;-52
2022/08/05 02:38:05;;;;;;;6.20;4.00;;;;;;;;;;5002978;28;20048;-49
2022/08/05 02:40:53;;;;;;;6.68;4.10;;;;;;;;;;5002706;28;20030;-48
2022/08/05 02:43:40;;;;;;;6.38;4.10;;;;;;;;;;5005193;28;20021;-52
2022/08/05 02:46:27;;;;;;;7.07;4.28;;;;;;;;;;5003659;28;20117;-49
2022/08/05 02:49:15;;;;;;;4.45;3.55;;;;;;;;;;5005497;28;20053;-47
2022/08/05 02:52:05;;;;;;;7.82;4.20;;;;;;;;;;5002899;28;20064;-48
2022/08/05 02:54:52;;;;;;;4.03;3.72;;;;;;;;;;5004548;28;20533;-47
2022/08/05 02:57:39;;;;;;;10.38;4.15;;;;;;;;;;5003680;28;20454;-48
2022/08/05 03:00:25;;;;;;;7.35;4.10;;;;;;;;;;5009431;28;20044;-48
2022/08/05 03:03:19;;;;;;;6.60;3.70;;;;;;;;;;5003122;28;20040;-51
2022/08/05 03:06:06;;;;;;;6.88;4.10;;;;;;;;;;5005015;28;20109;-51
2022/08/05 03:08:53;;;;;;;5.43;3.88;;;;;;;;;;5009835;28;20022;-48
2022/08/05 03:11:42;;;;;;;5.53;3.95;;;;;;;;;;5010272;28;20026;-48
2022/08/05 03:14:28;;;;;;;7.18;3.80;;;;;;;;;;5007321;28;20483;-48
2022/08/05 03:17:13;;;;;;;5.85;4.20;;;;;;;;;;5010778;28;20034;-47
2022/08/05 03:19:59;;;;;;;5.70;3.83;;;;;;;;;;5009897;28;20053;-47
2022/08/05 03:22:45;;;;;;;7.18;3.90;;;;;;;;;;5007529;28;20023;-49
2022/08/05 03:25:32;;;;;;;8.18;3.88;;;;;;;;;;5008931;28;20030;-48
2022/08/05 03:28:18;;;;;;;9.98;4.32;;;;;;;;;;5008622;28;20061;-49
2022/08/05 03:31:05;;;;;;;6.00;4.10;;;;;;;;;;5006718;28;20493;-52
2022/08/05 03:33:51;;;;;;;6.93;4.07;;;;;;;;;;5008775;28;20109;-50
2022/08/05 03:36:37;;;;;;;6.80;4.00;;;;;;;;;;5006155;28;20030;-49
2022/08/05 03:39:22;;;;;;;4.90;3.97;;;;;;;;;;5008924;28;20041;-48
2022/08/05 03:42:08;;;;;;;5.47;4.07;;;;;;;;;;5008121;28;20144;-48
2022/08/05 03:44:54;;;;;;;5.22;3.97;;;;;;;;;;5007693;28;20045;-48
2022/08/05 03:47:39;;;;;;;4.50;4.05;;;;;;;;;;5006826;28;20050;-50
2022/08/05 03:50:40;;;;;;;5.75;3.90;;;;;;;;;;5007162;28;20026;-49
2022/08/05 03:53:37;;;;;;;10.57;4.10;;;;;;;;;;5007104;28;20138;-48
2022/08/05 03:56:37;;;;;;;4.68;4.25;;;;;;;;;;5005640;28;20022;-49
2022/08/05 03:59:27;;;;;;;6.47;4.32;;;;;;;;;;5009672;28;20509;-50
2022/08/05 04:02:14;;;;;;;4.93;4.32;;;;;;;;;;5006942;28;20037;-48
2022/08/05 04:05:01;;;;;;;4.20;3.80;;;;;;;;;;5007394;28;20034;-46
2022/08/05 04:07:47;;;;;;;4.63;4.10;;;;;;;;;;5008980;28;20036;-48
2022/08/05 04:10:34;;;;;;;9.10;3.75;;;;;;;;;;5010368;28;20509;-48
2022/08/05 04:13:20;;;;;;;6.25;4.07;;;;;;;;;;5005779;28;20057;-47
2022/08/05 04:16:07;;;;;;;5.40;3.70;;;;;;;;;;5006689;28;20025;-47
2022/08/05 04:18:53;;;;;;;5.43;4.00;;;;;;;;;;5007443;28;20038;-47
2022/08/05 04:21:40;;;;;;;9.25;3.88;;;;;;;;;;5006332;28;20026;-51
2022/08/05 04:24:25;;;;;;;4.10;3.33;;;;;;;;;;5006529;28;20026;-49
2022/08/05 04:27:12;;;;;;;6.82;3.88;;;;;;;;;;5006343;28;20069;-48
2022/08/05 04:29:58;;;;;;;9.45;3.75;;;;;;;;;;5008669;28;20479;-51
2022/08/05 04:32:43;;;;;;;5.78;3.67;;;;;;;;;;5006200;28;20502;-47
2022/08/05 04:35:29;;;;;;;6.03;3.70;;;;;;;;;;5003433;28;20053;-49
2022/08/05 04:38:15;;;;;;;6.15;3.78;;;;;;;;;;5005781;28;20046;-47
2022/08/05 04:41:00;;;;;;;10.18;3.38;;;;;;;;;;5007268;28;20463;-47
2022/08/05 04:43:46;;;;;;;28.55;4.43;;;;;;;;;;5007924;28;20026;-48
2022/08/05 04:46:32;;;;;;;4.78;3.58;;;;;;;;;;5007251;28;20052;-48
2022/08/05 04:49:17;;;;;;;3.80;3.28;;;;;;;;;;5004429;28;20030;-48
2022/08/05 04:52:03;;;;;;;6.25;3.15;;;;;;;;;;5008950;28;20034;-48
2022/08/05 04:54:49;;;;;;;4.55;3.60;;;;;;;;;;5004205;28;20038;-51
2022/08/05 04:57:35;;;;;;;8.05;3.15;;;;;;;;;;5006066;28;20053;-48
2022/08/05 05:00:21;;;;;;;8.15;3.45;;;;;;;;;;5010491;28;20061;-47
2022/08/05 05:03:08;;;;;;;8.85;3.63;;;;;;;;;;5005436;28;20026;-48
2022/08/05 05:05:53;;;;;;;3.10;2.90;;;;;;;;;;5002768;28;20462;-49
2022/08/05 05:08:39;;;;;;;7.25;3.53;;;;;;;;;;5003729;28;20038;-50
2022/08/05 05:11:25;;;;;;;9.13;3.60;;;;;;;;;;5005592;28;20038;-48
2022/08/05 05:14:11;;;;;;;3.22;2.85;;;;;;;;;;5003830;28;20080;-47
2022/08/05 05:16:57;;;;;;;6.90;3.15;;;;;;;;;;5008783;28;20168;-49
2022/08/05 05:19:44;;;;;;;7.47;3.63;;;;;;;;;;5005344;28;20064;-47
2022/08/05 05:22:29;;;;;;;4.88;3.15;;;;;;;;;;5006280;28;20464;-50
2022/08/05 05:25:15;;;;;;;5.55;3.13;;;;;;;;;;5005246;28;20036;-47
2022/08/05 05:28:01;;;;;;;8.05;3.10;;;;;;;;;;5006952;28;20025;-47
2022/08/05 05:30:46;;;;;;;7.43;3.03;;;;;;;;;;5008022;28;20383;-48
2022/08/05 05:33:32;;;;;;;8.50;3.22;;;;;;;;;;5007484;28;20030;-49
2022/08/05 05:36:18;;;;;;;4.50;2.92;;;;;;;;;;5006877;28;20030;-47
2022/08/05 05:39:03;;;;;;;3.33;2.88;;;;;;;;;;5005295;28;20457;-47
2022/08/05 05:41:49;;;;;;;7.10;2.85;;;;;;;;;;5008176;28;20402;-49
2022/08/05 05:44:35;;;;;;;6.45;2.83;;;;;;;;;;5005183;28;20045;-51
2022/08/05 05:47:21;;;;;;;14.77;3.55;;;;;;;;;;5006693;28;20087;-48
2022/08/05 05:50:08;;;;;;;4.95;2.97;;;;;;;;;;5003116;28;20029;-49
2022/08/05 05:52:54;;;;;;;3.95;2.60;;;;;;;;;;5006126;28;20048;-49
2022/08/05 05:55:40;;;;;;;5.88;3.22;;;;;;;;;;5004417;28;20030;-48
2022/08/05 05:58:25;;;;;;;8.25;3.60;;;;;;;;;;5002772;28;20046;-47
2022/08/05 06:01:11;;;;;;;11.00;3.70;;;;;;;;;;5005277;28;20042;-47
2022/08/05 06:03:57;;;;;;;6.15;2.90;;;;;;;;;;5004270;28;20041;-47
2022/08/05 06:06:43;;;;;;;9.40;3.03;;;;;;;;;;5007315;28;20113;-52
2022/08/05 06:09:29;;;;;;;8.27;3.00;;;;;;;;;;5005478;28;20033;-52
2022/08/05 06:12:15;;;;;;;7.03;2.97;;;;;;;;;;5001926;28;20045;-47
2022/08/05 06:15:02;;;;;;;6.47;3.22;;;;;;;;;;5006085;28;20044;-47
2022/08/05 06:17:48;;;;;;;6.95;2.88;;;;;;;;;;5006939;28;20044;-52
2022/08/05 06:20:34;;;;;;;7.38;3.38;;;;;;;;;;5008992;28;20053;-48
2022/08/05 06:23:19;;;;;;;15.13;3.38;;;;;;;;;;5003595;28;20080;-48
2022/08/05 06:26:05;;;;;;;9.52;3.08;;;;;;;;;;5003994;28;20057;-52
2022/08/05 06:28:51;;;;;;;9.52;3.90;;;;;;;;;;5006435;28;20603;-50
2022/08/05 06:31:37;;;;;;;9.00;3.45;;;;;;;;;;5005912;28;20080;-47
2022/08/05 06:34:22;;;;;;;18.17;3.55;;;;;;;;;;5004670;28;20027;-47
2022/08/05 06:37:08;;;;;;;8.77;3.20;;;;;;;;;;5006459;28;20030;-53
2022/08/05 06:39:54;;;;;;;10.07;3.30;;;;;;;;;;5004963;28;20030;-47
2022/08/05 06:42:39;;;;;;;7.10;3.70;;;;;;;;;;5005130;28;20053;-48
2022/08/05 06:45:25;;;;;;;13.23;4.50;;;;;;;;;;5005609;28;20017;-48
2022/08/05 06:48:11;;;;;;;7.82;4.50;;;;;;;;;;5004856;28;20022;-48
2022/08/05 06:50:57;;;;;;;14.05;4.80;;;;;;;;;;5003830;28;20120;-50
2022/08/05 06:53:42;;;;;;;17.60;4.65;;;;;;;;;;5005466;28;20046;-50
2022/08/05 06:56:30;;;;;;;9.35;5.55;;;;;;;;;;5003641;28;20026;-53
2022/08/05 06:59:15;;;;;;;7.88;4.32;;;;;;;;;;5004717;28;20051;-50
2022/08/05 07:02:01;;;;;;;12.57;4.07;;;;;;;;;;5005572;28;20045;-48
2022/08/05 07:04:47;;;;;;;8.77;3.90;;;;;;;;;;5005773;28;20034;-48
2022/08/05 07:07:33;;;;;;;10.93;3.92;;;;;;;;;;5006973;28;20066;-47
2022/08/05 07:10:19;;;;;;;127.55;13.68;;;;;;;;;;5003440;28;20057;-50
2022/08/05 07:19:13;;;;;;;27.83;4.53;;;;;;;;;;5006339;28;20037;-54
2022/08/05 07:21:59;;;;;;;14.13;3.50;;;;;;;;;;5005254;28;20479;-52
2022/08/05 07:24:45;;;;;;;5.65;3.38;;;;;;;;;;5004138;28;20051;-48
2022/08/05 07:27:31;;;;;;;8.15;3.80;;;;;;;;;;5005050;28;20026;-47
2022/08/05 07:30:17;;;;;;;7.55;4.35;;;;;;;;;;5005970;28;20137;-48
2022/08/05 07:33:04;;;;;;;6.97;4.75;;;;;;;;;;5003901;28;20501;-50
2022/08/05 07:35:50;;;;;;;7.93;5.13;;;;;;;;;;5003968;28;20064;-47
2022/08/05 07:38:36;;;;;;;10.07;4.80;;;;;;;;;;5004630;28;20038;-48
2022/08/05 07:41:23;;;;;;;9.95;4.85;;;;;;;;;;5002684;28;20034;-50
2022/08/05 07:44:09;;;;;;;10.25;4.93;;;;;;;;;;5006283;28;20033;-50
2022/08/05 07:46:54;;;;;;;7.75;4.25;;;;;;;;;;5006092;28;20372;-49
2022/08/05 07:49:40;;;;;;;8.55;4.15;;;;;;;;;;5001112;28;20399;-50
2022/08/05 07:52:26;;;;;;;18.08;5.95;;;;;;;;;;5005689;28;20037;-50
2022/08/05 07:55:11;;;;;;;46.80;7.15;;;;;;;;;;5008958;28;20038;-48
2022/08/05 07:57:57;;;;;;;24.58;5.63;;;;;;;;;;5009009;28;20050;-53
2022/08/05 08:00:43;;;;;;;14.18;4.28;;;;;;;;;;5008045;28;20069;-54
2022/08/05 08:03:29;;;;;;;16.60;3.83;;;;;;;;;;5007205;28;20033;-50
2022/08/05 08:06:15;;;;;;;16.15;4.38;;;;;;;;;;5008928;28;20041;-54
2022/08/05 08:09:01;;;;;;;12.77;4.55;;;;;;;;;;5009707;28;20038;-52
2022/08/05 08:11:46;;;;;;;8.88;3.95;;;;;;;;;;5009620;28;20066;-50
2022/08/05 08:14:32;;;;;;;9.18;4.28;;;;;;;;;;5007942;28;20038;-55
2022/08/05 08:17:18;;;;;;;10.32;3.78;;;;;;;;;;5008280;28;20140;-50
2022/08/05 08:20:05;;;;;;;9.98;3.80;;;;;;;;;;5003679;28;20033;-51
2022/08/05 08:22:56;;;;;;;14.32;3.83;;;;;;;;;;5010031;28;20375;-51
2022/08/05 08:25:41;;;;;;;5.75;3.20;;;;;;;;;;5008460;28;20042;-46
2022/08/05 08:28:28;;;;;;;11.90;2.88;;;;;;;;;;5007198;28;20441;-55
2022/08/05 08:31:13;;;;;;;12.70;3.53;;;;;;;;;;5007061;28;20029;-48
2022/08/05 08:33:59;;;;;;;10.23;3.42;;;;;;;;;;5007096;28;20033;-51
2022/08/05 08:36:45;;;;;;;6.63;3.08;;;;;;;;;;5005112;28;20085;-51
2022/08/05 08:39:31;;;;;;;7.72;2.92;;;;;;;;;;5008255;28;20033;-50
2022/08/05 08:42:17;;;;;;;5.05;2.80;;;;;;;;;;5006168;28;20042;-52
2022/08/05 08:45:04;;;;;;;7.53;3.08;;;;;;;;;;5009691;28;20026;-49
2022/08/05 08:47:51;;;;;;;4.70;2.70;;;;;;;;;;5006567;28;20039;-49
2022/08/05 08:50:40;;;;;;;10.18;2.95;;;;;;;;;;5008559;28;20100;-48
2022/08/05 08:53:28;;;;;;;5.88;2.55;;;;;;;;;;5005289;28;20034;-48
2022/08/05 08:56:16;;;;;;;5.20;2.65;;;;;;;;;;5007799;28;20018;-49
2022/08/05 08:59:01;;;;;;;3.50;2.00;;;;;;;;;;5008539;28;20052;-48
2022/08/05 09:01:47;;;;;;;6.55;1.98;;;;;;;;;;5007163;28;20040;-48
2022/08/05 09:04:37;;;;;;;4.10;2.13;;;;;;;;;;5005311;28;20038;-48
2022/08/05 09:07:23;;;;;;;15.48;2.60;;;;;;;;;;5006165;28;20519;-50
2022/08/05 09:10:08;;;;;;;5.95;1.88;;;;;;;;;;5007025;28;20069;-51
2022/08/05 09:12:55;;;;;;;4.63;1.77;;;;;;;;;;5004985;28;20034;-50
2022/08/05 09:15:41;;;;;;;9.52;1.80;;;;;;;;;;5006209;28;20491;-47
2022/08/05 09:18:28;;;;;;;7.20;2.17;;;;;;;;;;5008445;28;20061;-50
2022/08/05 09:21:14;;;;;;;3.33;2.03;;;;;;;;;;5004761;28;20041;-49
2022/08/05 09:24:07;;;;;;;2.22;1.80;;;;;;;;;;5005371;28;20092;-50
2022/08/05 09:26:56;;;;;;;3.30;1.80;;;;;;;;;;5006116;28;20075;-48
2022/08/05 09:29:48;;;;;;;6.18;1.90;;;;;;;;;;5003033;28;20026;-50
2022/08/05 09:32:35;;;;;;;;;;;;;;;;;;5005994;28;20105;-48
2022/08/05 09:35:20;;;;;;;2.83;1.73;;;;;;;;;;5004132;28;19923;-54
2022/08/05 09:38:06;;;;;;;3.55;1.70;;;;;;;;;;5007794;28;20379;-48
2022/08/05 09:40:55;;;;;;;5.93;1.80;;;;;;;;;;5004099;28;20026;-48
2022/08/05 09:43:41;;;;;;;5.93;2.10;;;;;;;;;;5006545;28;20037;-48
2022/08/05 09:46:30;;;;;;;2.53;1.90;;;;;;;;;;5004813;28;20112;-48
2022/08/05 09:49:23;;;;;;;6.03;1.90;;;;;;;;;;5008337;28;20483;-49
2022/08/05 09:52:35;;;;;;;4.35;2.05;;;;;;;;;;5006591;28;20038;-49
2022/08/05 09:55:20;;;;;;;6.85;2.08;;;;;;;;;;5007655;28;20030;-49
2022/08/05 09:58:14;;;;;;;6.35;2.10;;;;;;;;;;5005709;28;20038;-48
2022/08/05 10:01:04;;;;;;;3.95;2.45;;;;;;;;;;5006561;28;20038;-51
2022/08/05 10:03:58;;;;;;;6.28;2.22;;;;;;;;;;5006322;28;20061;-54
2022/08/05 10:06:55;;;;;;;5.13;2.20;;;;;;;;;;5004321;28;20113;-49
2022/08/05 10:09:54;;;;;;;5.00;2.65;;;;;;;;;;5004319;28;20427;-48
2022/08/05 10:12:44;;;;;;;3.53;2.20;;;;;;;;;;5002620;28;20045;-48
2022/08/05 10:15:36;;;;;;;2.08;1.98;;;;;;;;;;5005337;28;20391;-48
2022/08/05 10:18:22;;;;;;;8.10;2.47;;;;;;;;;;5003953;28;20027;-47
2022/08/05 10:21:08;;;;;;;3.40;1.90;;;;;;;;;;5002911;28;20038;-50
2022/08/05 10:23:54;;;;;;;6.70;2.78;;;;;;;;;;5006898;28;20121;-48
2022/08/05 10:26:41;;;;;;;5.13;2.40;;;;;;;;;;5007780;28;20034;-48
2022/08/05 10:29:31;;;;;;;7.85;2.42;;;;;;;;;;5004516;28;20442;-49
2022/08/05 10:32:16;;;;;;;8.43;2.58;;;;;;;;;;5005934;28;20403;-49
2022/08/05 10:35:02;;;;;;;6.07;1.75;;;;;;;;;;5004348;28;20395;-51
2022/08/05 10:37:48;;;;;;;3.47;1.95;;;;;;;;;;5006176;28;20038;-48
2022/08/05 10:40:50;;;;;;;2.20;1.83;;;;;;;;;;5005861;28;20486;-53
2022/08/05 10:44:02;;;;;;;5.38;2.05;;;;;;;;;;5005900;28;20060;-50
2022/08/05 10:46:50;;;;;;;;;;;;;;;;;;5003627;28;20034;-51
2022/08/05 10:50:00;;;;;;;2.55;2.10;;;;;;;;;;5005058;28;19917;-50
2022/08/05 10:52:58;;;;;;;3.95;2.00;;;;;;;;;;5003812;28;20112;-48
2022/08/05 10:56:06;;;;;;;2.35;2.00;;;;;;;;;;5006261;28;20033;-48
2022/08/05 10:58:51;;;;;;;2.38;1.95;;;;;;;;;;5003956;28;20112;-48
2022/08/05 11:01:43;;;;;;;3.25;2.63;;;;;;;;;;5005022;28;20044;-51
2022/08/05 11:04:28;;;;;;;4.72;2.28;;;;;;;;;;5001363;28;20045;-51
2022/08/05 11:07:17;;;;;;;5.25;2.30;;;;;;;;;;5007858;28;20030;-51
2022/08/05 11:10:03;;;;;;;3.55;2.38;;;;;;;;;;5000135;28;20065;-52
2022/08/05 11:12:49;;;;;;;4.35;2.22;;;;;;;;;;5001966;28;20034;-49
2022/08/05 11:15:42;;;;;;;8.30;2.63;;;;;;;;;;5005801;28;20057;-52
2022/08/05 11:18:31;;;;;;;4.53;2.85;;;;;;;;;;5004281;28;20071;-51
2022/08/05 11:21:32;;;;;;;10.07;2.40;;;;;;;;;;5005767;28;20080;-53
2022/08/05 11:24:20;;;;;;;4.18;2.25;;;;;;;;;;5009508;28;20026;-50
2022/08/05 11:27:28;;;;;;;8.27;2.78;;;;;;;;;;5005779;28;20030;-55
2022/08/05 11:30:14;;;;;;;4.90;2.30;;;;;;;;;;5008799;28;20033;-52
2022/08/05 11:33:28;;;;;;;8.73;2.90;;;;;;;;;;5007592;28;20022;-55
2022/08/05 11:36:17;;;;;;;17.30;2.90;;;;;;;;;;5008053;28;20479;-51
2022/08/05 11:39:04;;;;;;;6.38;2.50;;;;;;;;;;5006297;28;20026;-49
2022/08/05 11:41:51;;;;;;;7.05;2.78;;;;;;;;;;5006971;28;20029;-49
2022/08/05 11:44:38;;;;;;;3.85;2.67;;;;;;;;;;5005335;28;20080;-55
2022/08/05 11:47:23;;;;;;;3.40;2.90;;;;;;;;;;5010216;28;20040;-50
2022/08/05 11:50:09;;;;;;;4.22;2.92;;;;;;;;;;5012300;28;20387;-49
2022/08/05 11:52:55;;;;;;;7.07;2.97;;;;;;;;;;5010626;28;20478;-53
2022/08/05 11:56:00;;;;;;;7.00;3.00;;;;;;;;;;5006890;28;20045;-49
2022/08/05 11:58:48;;;;;;;10.02;3.03;;;;;;;;;;5008268;28;20088;-50
2022/08/05 12:01:34;;;;;;;5.72;2.70;;;;;;;;;;5006732;28;20502;-51
2022/08/05 12:04:20;;;;;;;12.07;3.28;;;;;;;;;;5007953;28;20389;-51
2022/08/05 12:07:08;;;;;;;8.55;2.72;;;;;;;;;;5005667;28;20540;-50
2022/08/05 12:09:58;;;;;;;3.75;2.50;;;;;;;;;;5005230;28;20045;-52
2022/08/05 12:12:43;;;;;;;5.03;2.70;;;;;;;;;;5007045;28;20038;-49
2022/08/05 12:15:29;;;;;;;7.63;2.47;;;;;;;;;;5007157;28;20049;-51
2022/08/05 12:18:18;;;;;;;2.85;2.58;;;;;;;;;;5004086;28;20069;-50
2022/08/05 12:21:15;;;;;;;5.72;2.72;;;;;;;;;;5008655;28;20041;-49
2022/08/05 12:24:03;;;;;;;3.63;2.97;;;;;;;;;;5007033;28;20056;-50
2022/08/05 12:26:52;;;;;;;5.35;2.97;;;;;;;;;;5007331;28;20034;-50
2022/08/05 12:29:38;;;;;;;5.40;2.65;;;;;;;;;;5007412;28;20022;-52
2022/08/05 12:32:23;;;;;;;8.40;2.95;;;;;;;;;;5007006;28;20106;-50
2022/08/05 12:35:10;;;;;;;9.38;3.15;;;;;;;;;;5006687;28;20038;-53
2022/08/05 12:37:55;;;;;;;6.47;2.75;;;;;;;;;;5007061;28;20041;-52
2022/08/05 12:40:41;;;;;;;3.20;2.80;;;;;;;;;;5007827;28;20113;-49
2022/08/05 12:43:27;;;;;;;7.15;3.13;;;;;;;;;;5007328;28;20028;-53
2022/08/05 12:46:29;;;;;;;5.05;2.50;;;;;;;;;;5008799;28;20033;-50
2022/08/05 12:49:15;;;;;;;5.30;2.85;;;;;;;;;;5007053;28;20029;-52
2022/08/05 12:52:00;;;;;;;6.78;3.40;;;;;;;;;;5005257;28;20030;-53
2022/08/05 12:54:50;;;;;;;3.58;2.58;;;;;;;;;;5009195;28;20395;-50
2022/08/05 12:57:36;;;;;;;4.20;2.90;;;;;;;;;;5006415;28;20136;-55
2022/08/05 13:00:24;;;;;;;7.38;2.85;;;;;;;;;;5008258;28;20046;-48
2022/08/05 13:03:11;;;;;;;3.53;2.78;;;;;;;;;;5008198;28;20030;-52
2022/08/05 13:05:57;;;;;;;6.93;2.90;;;;;;;;;;5006616;28;20026;-52
2022/08/05 13:08:46;;;;;;;5.03;2.50;;;;;;;;;;5007600;28;20041;-52
2022/08/05 13:11:31;;;;;;;4.40;2.75;;;;;;;;;;5006542;28;20545;-50
2022/08/05 13:14:22;;;;;;;3.33;2.75;;;;;;;;;;5005573;28;20033;-54
2022/08/05 13:17:14;;;;;;;8.93;2.90;;;;;;;;;;5006243;28;20041;-50
2022/08/05 13:20:13;;;;;;;9.02;2.42;;;;;;;;;;5007137;28;20030;-51
2022/08/05 13:22:59;;;;;;;2.67;2.35;;;;;;;;;;5006515;28;20442;-50
2022/08/05 13:25:45;;;;;;;5.53;2.53;;;;;;;;;;5008530;28;20052;-51
2022/08/05 13:28:31;;;;;;;8.48;2.78;;;;;;;;;;5005274;28;20029;-54
2022/08/05 13:31:16;;;;;;;4.43;2.28;;;;;;;;;;5009914;28;20030;-55
2022/08/05 13:34:02;;;;;;;3.20;2.28;;;;;;;;;;5008111;28;20077;-50
2022/08/05 13:36:48;;;;;;;5.88;2.60;;;;;;;;;;5006072;28;20041;-54
2022/08/05 13:39:34;;;;;;;7.55;2.65;;;;;;;;;;5005628;28;20036;-50
2022/08/05 13:42:20;;;;;;;3.70;2.22;;;;;;;;;;5007161;28;20033;-51
2022/08/05 13:45:07;;;;;;;2.53;1.73;;;;;;;;;;5006689;28;20026;-54
2022/08/05 13:47:52;;;;;;;5.80;2.20;;;;;;;;;;5004176;28;20376;-53
2022/08/05 13:50:38;;;;;;;7.10;2.38;;;;;;;;;;5005399;28;20544;-53
2022/08/05 13:53:24;;;;;;;3.35;2.03;;;;;;;;;;5004930;28;20033;-53
2022/08/05 13:56:10;;;;;;;7.47;2.30;;;;;;;;;;5000281;28;20044;-50
2022/08/05 13:58:55;;;;;;;6.68;2.83;;;;;;;;;;5003049;28;20041;-53
2022/08/05 14:01:41;;;;;;;8.23;3.00;;;;;;;;;;5003243;28;20045;-53
2022/08/05 14:07:40;;;;;;;5.82;2.30;;;;;;;;;;5005299;28;20061;-50
2022/08/05 14:10:26;;;;;;;10.57;2.70;;;;;;;;;;5002437;28;20478;-50
2022/08/05 14:13:11;;;;;;;5.68;2.40;;;;;;;;;;5004659;28;20040;-53
2022/08/05 14:15:57;;;;;;;7.72;2.70;;;;;;;;;;5004689;28;20026;-55
2022/08/05 14:18:43;;;;;;;6.47;2.60;;;;;;;;;;5005078;28;20461;-49
2022/08/05 14:21:28;;;;;;;11.05;2.92;;;;;;;;;;4999675;28;20096;-53
2022/08/05 14:24:14;;;;;;;6.47;2.65;;;;;;;;;;5003131;28;20462;-54
2022/08/05 14:27:01;;;;;;;4.55;2.40;;;;;;;;;;5004608;28;20386;-52
2022/08/05 14:29:47;;;;;;;4.55;2.47;;;;;;;;;;5006661;28;20172;-53
2022/08/05 14:32:33;;;;;;;5.95;2.03;;;;;;;;;;5004977;28;20030;-52
2022/08/05 14:35:18;;;;;;;4.80;2.75;;;;;;;;;;5007798;28;20439;-55
2022/08/05 14:38:04;;;;;;;3.53;2.30;;;;;;;;;;5004762;28;20034;-53
2022/08/05 14:40:50;;;;;;;5.78;2.38;;;;;;;;;;5002984;28;20038;-53
2022/08/05 14:43:36;;;;;;;4.28;3.17;;;;;;;;;;5004527;28;20037;-49
2022/08/05 14:46:24;;;;;;;5.25;2.50;;;;;;;;;;5005163;28;20149;-48
2022/08/05 14:49:10;;;;;;;5.75;2.95;;;;;;;;;;5002408;28;20033;-51
2022/08/05 14:51:55;;;;;;;8.65;2.78;;;;;;;;;;5005184;28;20105;-49
2022/08/05 14:54:41;;;;;;;8.27;2.70;;;;;;;;;;5005516;28;20030;-50
2022/08/05 14:57:27;;;;;;;5.20;3.00;;;;;;;;;;5002174;28;20483;-53
2022/08/05 15:00:13;;;;;;;2.60;2.22;;;;;;;;;;5005869;28;20057;-51
2022/08/05 15:02:58;;;;;;;12.55;2.50;;;;;;;;;;5007425;28;20018;-50
2022/08/05 15:05:44;;;;;;;3.65;2.40;;;;;;;;;;5010117;28;20022;-50
2022/08/05 15:08:30;;;;;;;5.15;2.15;;;;;;;;;;5008876;28;20026;-51
2022/08/05 15:11:16;;;;;;;5.20;2.47;;;;;;;;;;5008773;28;20034;-48
2022/08/05 15:14:03;;;;;;;3.42;2.95;;;;;;;;;;5008542;28;20558;-49
2022/08/05 15:16:49;;;;;;;9.85;2.33;;;;;;;;;;5008270;28;20471;-52
2022/08/05 15:19:34;;;;;;;5.97;2.75;;;;;;;;;;5007460;28;20040;-50
2022/08/05 15:22:20;;;;;;;3.30;2.70;;;;;;;;;;5011262;28;20483;-53
2022/08/05 15:25:07;;;;;;;2.55;2.38;;;;;;;;;;5007644;28;20037;-50
2022/08/05 15:27:52;;;;;;;4.38;2.90;;;;;;;;;;5005900;28;20447;-54
2022/08/05 15:30:38;;;;;;;3.50;2.90;;;;;;;;;;5007626;28;20498;-52
2022/08/05 15:33:24;;;;;;;7.53;2.90;;;;;;;;;;5007041;28;20085;-50
2022/08/05 15:36:10;;;;;;;6.18;2.70;;;;;;;;;;5006916;28;20513;-50
2022/08/05 15:38:56;;;;;;;5.80;2.40;;;;;;;;;;5009781;28;20392;-49
2022/08/05 15:41:42;;;;;;;5.05;2.55;;;;;;;;;;5007550;28;20630;-48
2022/08/05 15:44:28;;;;;;;7.97;2.70;;;;;;;;;;5006593;28;23008;-48
2022/08/05 15:47:13;;;;;;;3.78;2.25;;;;;;;;;;5007046;28;20058;-53
2022/08/05 15:49:59;;;;;;;6.85;2.20;;;;;;;;;;5007383;28;20041;-51
2022/08/05 15:52:45;;;;;;;2.60;2.20;;;;;;;;;;5007840;28;20124;-52
2022/08/05 15:55:31;;;;;;;2.40;2.05;;;;;;;;;;5008602;28;20034;-51
2022/08/05 15:58:16;;;;;;;2.85;2.20;;;;;;;;;;5007406;28;20134;-49
2022/08/05 16:01:04;;;;;;;11.75;2.45;;;;;;;;;;5009799;28;20069;-50
2022/08/05 16:03:50;;;;;;;9.50;2.30;;;;;;;;;;5008565;28;20037;-52
2022/08/05 16:06:35;;;;;;;5.25;2.33;;;;;;;;;;5008714;28;20239;-48
2022/08/05 16:09:22;;;;;;;3.70;2.22;;;;;;;;;;5007516;28;20034;-52
2022/08/05 16:12:08;;;;;;;6.65;2.42;;;;;;;;;;5007514;28;20077;-49
2022/08/05 16:14:54;;;;;;;5.10;2.10;;;;;;;;;;5006191;28;20394;-52
2022/08/05 16:17:39;;;;;;;4.63;2.38;;;;;;;;;;5008900;28;20065;-52
2022/08/05 16:20:25;;;;;;;2.17;2.08;;;;;;;;;;5006831;28;20036;-49
2022/08/05 16:23:11;;;;;;;4.88;2.20;;;;;;;;;;5007787;28;20034;-53
2022/08/05 16:26:07;;;;;;;6.68;2.80;;;;;;;;;;5009395;28;20368;-50
2022/08/05 16:28:53;;;;;;;6.15;3.13;;;;;;;;;;5008711;28;20125;-52
2022/08/05 16:31:39;;;;;;;4.25;3.10;;;;;;;;;;5007162;28;20049;-50
2022/08/05 16:34:25;;;;;;;4.13;2.90;;;;;;;;;;5007533;28;20033;-50
2022/08/05 16:37:11;;;;;;;4.90;3.22;;;;;;;;;;5003613;28;20022;-54
2022/08/05 16:39:57;;;;;;;4.45;2.92;;;;;;;;;;5006435;28;20030;-50
2022/08/05 16:42:42;;;;;;;5.93;3.13;;;;;;;;;;5006457;28;20096;-47
2022/08/05 16:45:28;;;;;;;3.38;3.00;;;;;;;;;;5005817;28;20368;-50
2022/08/05 16:48:14;;;;;;;6.07;3.97;;;;;;;;;;5007373;28;20033;-48
2022/08/05 16:51:00;;;;;;;7.13;3.67;;;;;;;;;;5007559;28;20042;-48
2022/08/05 16:53:45;;;;;;;15.45;3.83;;;;;;;;;;5006793;28;20029;-51
2022/08/05 16:56:34;;;;;;;6.38;3.55;;;;;;;;;;5008539;28;20030;-52